Time;durP1;ratioP1;P1;durP2;ratioP2;P2;SDS_P1;SDS_P2;PMS_P1;PMS_P2;Temp;Humidity;BMP_temperature;BMP_pressure;BME280_temperature;BME280_humidity;BME280_pressure;Samples;Min_cycle;Max_cycle;Signal;HPM_P1;HPM_P2
2021/03/20 00:01:37;;;;;;;3.83;2.70;;;;;;;1.75;79.49;100519.89;1719723;82;22221;-47
2021/03/20 00:04:05;;;;;;;5.10;3.52;;;;;;;1.76;79.59;100522.92;1722081;82;21137;-50
2021/03/20 00:06:40;;;;;;;4.78;3.52;;;;;;;1.77;79.65;100525.13;1716889;81;21172;-48
2021/03/20 00:09:10;;;;;;;5.30;4.42;;;;;;;1.78;79.67;100524.22;1688533;83;21299;-47
2021/03/20 00:11:39;;;;;;;8.50;4.58;;;;;;;1.76;80.02;100530.81;1713217;81;21162;-48
2021/03/20 00:14:09;;;;;;;7.17;5.28;;;;;;;1.70;80.63;100522.61;1689564;83;21178;-48
2021/03/20 00:16:37;;;;;;;9.60;6.28;;;;;;;1.67;81.20;100521.83;1679471;83;21313;-44
2021/03/20 00:19:05;;;;;;;7.95;6.00;;;;;;;1.62;81.26;100518.42;1684541;83;21665;-45
2021/03/20 00:21:33;;;;;;;9.38;6.35;;;;;;;1.57;81.29;100517.20;1742551;81;21146;-44
2021/03/20 00:24:01;;;;;;;8.68;6.58;;;;;;;1.56;81.33;100519.39;1742200;81;21146;-46
2021/03/20 00:26:29;;;;;;;8.15;5.22;;;;;;;1.54;81.52;100517.70;1742304;81;21162;-45
2021/03/20 00:28:57;;;;;;;8.20;5.37;;;;;;;1.53;81.50;100515.98;1739212;81;21557;-45
2021/03/20 00:31:24;;;;;;;7.05;4.70;;;;;;;1.49;81.54;100519.13;1738451;81;21275;-44
2021/03/20 00:33:52;;;;;;;7.97;4.15;;;;;;;1.44;81.63;100510.02;1744322;81;21122;-48
2021/03/20 00:36:20;;;;;;;7.12;4.40;;;;;;;1.42;81.86;100513.58;1739003;81;21165;-47
2021/03/20 00:38:50;;;;;;;9.63;4.55;;;;;;;1.41;81.89;100515.77;1732211;82;21141;-47
2021/03/20 00:41:18;;;;;;;7.97;3.98;;;;;;;1.38;82.03;100518.02;1738304;81;21688;-46
2021/03/20 00:43:45;;;;;;;10.43;4.55;;;;;;;1.37;82.37;100520.23;1732340;81;21166;-50
2021/03/20 00:46:13;;;;;;;13.88;5.50;;;;;;;1.35;82.99;100519.85;1736366;81;21162;-43
2021/03/20 00:48:41;;;;;;;13.93;5.20;;;;;;;1.35;82.78;100515.91;1735559;81;21146;-48
2021/03/20 00:51:09;;;;;;;10.13;4.08;;;;;;;1.35;82.58;100519.39;1737028;81;21565;-44
2021/03/20 00:53:37;;;;;;;16.48;6.58;;;;;;;1.38;82.41;100519.78;1737444;81;21123;-50
2021/03/20 00:56:06;;;;;;;11.60;5.53;;;;;;;1.39;82.25;100508.39;1739513;81;21103;-47
2021/03/20 00:58:37;;;;;;;10.68;4.35;;;;;;;1.39;82.24;100508.39;1742211;81;21158;-44
2021/03/20 01:01:14;;;;;;;12.88;4.42;;;;;;;1.41;82.34;100510.09;1740570;81;22020;-43
2021/03/20 01:03:43;;;;;;;9.70;4.15;;;;;;;1.41;82.24;100509.20;1747052;81;21166;-43
2021/03/20 01:06:15;;;;;;;7.85;4.25;;;;;;;1.43;82.08;100508.73;1737839;81;21151;-43
2021/03/20 01:08:43;;;;;;;7.03;4.05;;;;;;;1.44;81.98;100505.22;1685501;83;21139;-44
2021/03/20 01:11:12;;;;;;;7.67;4.58;;;;;;;1.46;81.91;100508.66;1739327;81;21160;-44
2021/03/20 01:13:41;;;;;;;10.53;4.90;;;;;;;1.49;81.80;100508.62;1739456;81;21149;-44
2021/03/20 01:16:09;;;;;;;6.62;3.47;;;;;;;1.49;81.68;100507.30;1743938;81;21740;-44
2021/03/20 01:18:39;;;;;;;6.47;4.65;;;;;;;1.48;81.63;100499.84;1738033;81;21578;-45
2021/03/20 01:21:07;;;;;;;7.17;3.70;;;;;;;1.49;81.58;100499.42;1741302;81;21146;-45
2021/03/20 01:23:35;;;;;;;8.95;4.42;;;;;;;1.48;81.56;100498.98;1718838;82;21133;-43
2021/03/20 01:26:03;;;;;;;6.35;3.90;;;;;;;1.49;81.50;100508.16;1742250;81;21969;-45
2021/03/20 01:28:34;;;;;;;5.87;3.40;;;;;;;1.50;81.63;100503.31;1742768;81;21264;-44
2021/03/20 01:31:02;;;;;;;5.25;4.08;;;;;;;1.52;81.52;100501.98;1741161;81;21566;-44
2021/03/20 01:33:30;;;;;;;6.58;4.10;;;;;;;1.56;81.40;100502.77;1680211;83;21152;-44
2021/03/20 01:35:58;;;;;;;8.88;4.67;;;;;;;1.58;81.26;100505.78;1739456;81;21157;-46
2021/03/20 01:38:26;;;;;;;6.72;4.53;;;;;;;1.60;81.19;100501.81;1739963;81;21621;-45
2021/03/20 01:41:02;;;;;;;6.40;4.40;;;;;;;1.60;81.15;100505.76;1732013;81;21169;-46
2021/03/20 01:43:36;;;;;;;7.05;4.45;;;;;;;1.63;81.10;100505.23;1802268;78;23133;-44
2021/03/20 01:46:52;;;;;;;9.05;5.12;;;;;;;1.57;81.26;100507.14;1765725;80;21137;-44
2021/03/20 01:49:43;;;;;;;7.12;4.70;;;;;;;1.57;81.23;100508.00;1771345;80;21676;-48
2021/03/20 01:52:27;;;;;;;9.78;4.97;;;;;;;1.57;81.27;100509.77;1775917;79;21149;-43
2021/03/20 01:55:07;;;;;;;7.60;5.00;;;;;;;1.62;81.29;100519.74;1772118;80;21129;-45
2021/03/20 01:57:39;;;;;;;7.85;5.17;;;;;;;1.62;81.21;100517.97;1771350;79;21153;-45
2021/03/20 02:00:17;;;;;;;8.20;4.78;;;;;;;1.61;81.30;100520.62;1735490;81;21178;-42
2021/03/20 02:02:45;;;;;;;7.62;4.80;;;;;;;1.62;81.38;100517.97;1728851;81;21206;-46
2021/03/20 02:05:24;;;;;;;8.48;5.35;;;;;;;1.65;81.34;100519.22;1724806;82;21138;-46
2021/03/20 02:07:52;;;;;;;7.05;5.97;;;;;;;1.66;81.39;100524.02;1725721;82;21132;-46
2021/03/20 02:10:21;;;;;;;8.65;5.75;;;;;;;1.69;81.38;100524.84;1722127;81;21165;-47
2021/03/20 02:12:52;;;;;;;8.35;5.75;;;;;;;1.72;81.40;100525.22;1718924;81;21155;-46
2021/03/20 02:15:50;;;;;;;11.08;7.55;;;;;;;1.73;81.41;100522.54;1738203;81;21193;-44
2021/03/20 02:18:35;;;;;;;12.07;7.87;;;;;;;1.76;81.32;100529.49;1735088;81;21569;-49
2021/03/20 02:21:35;;;;;;;10.98;7.72;;;;;;;1.74;81.33;100528.69;1744456;81;21106;-46
2021/03/20 02:24:36;;;;;;;12.88;8.98;;;;;;;1.73;81.24;100535.69;1739187;79;28210;-48
2021/03/20 02:27:46;;;;;;;12.07;8.48;;;;;;;1.66;81.18;100536.74;1737331;80;21173;-46
2021/03/20 02:30:45;;;;;;;11.55;8.18;;;;;;;1.68;81.19;100533.60;1656372;85;21149;-44
2021/03/20 02:33:37;;;;;;;12.33;8.78;;;;;;;1.67;81.17;100537.60;1657746;84;21166;-43
2021/03/20 02:36:19;;;;;;;11.30;8.20;;;;;;;1.65;81.22;100536.30;1652474;84;21178;-46
2021/03/20 02:38:53;;;;;;;12.53;8.75;;;;;;;1.64;81.35;100535.05;1664779;84;21248;-42
2021/03/20 02:41:34;;;;;;;11.57;8.50;;;;;;;1.65;81.43;100540.70;1659100;84;21170;-44
2021/03/20 02:44:25;;;;;;;10.25;7.47;;;;;;;1.64;81.48;100537.67;1662841;84;21328;-44
2021/03/20 02:47:00;;;;;;;11.70;7.85;;;;;;;1.65;81.48;100538.08;1660302;84;21645;-45
2021/03/20 02:49:36;;;;;;;11.25;8.43;;;;;;;1.66;81.42;100530.59;1658812;84;21593;-45
2021/03/20 02:52:12;;;;;;;11.05;7.62;;;;;;;1.63;81.41;100535.92;1665131;86;21162;-45
2021/03/20 02:54:51;;;;;;;13.35;8.53;;;;;;;1.62;81.39;100536.83;1639303;84;21181;-40
2021/03/20 02:57:26;;;;;;;16.15;8.18;;;;;;;1.62;81.44;100533.75;1661945;84;21707;-41
2021/03/20 03:00:00;;;;;;;13.38;9.15;;;;;;;1.62;81.50;100539.00;1639465;86;21867;-42
2021/03/20 03:02:29;;;;;;;14.93;9.15;;;;;;;1.62;81.51;100539.00;1642727;85;21134;-41
2021/03/20 03:05:16;;;;;;;16.12;9.25;;;;;;;1.63;81.52;100538.55;1660705;82;21265;-43
2021/03/20 03:07:59;;;;;;;16.65;8.85;;;;;;;1.63;81.47;100542.03;1719865;82;21134;-41
2021/03/20 03:10:35;;;;;;;14.47;8.40;;;;;;;1.63;81.45;100546.44;1702855;83;21161;-47
2021/03/20 03:13:07;;;;;;;18.45;8.50;;;;;;;1.60;81.47;100545.19;1657060;82;21142;-48
2021/03/20 03:15:39;;;;;;;13.68;8.75;;;;;;;1.59;81.51;100547.39;1702531;82;21178;-43
2021/03/20 03:18:11;;;;;;;16.82;9.93;;;;;;;1.57;81.64;100549.20;1679120;83;21141;-47
2021/03/20 03:20:48;;;;;;;16.42;10.25;;;;;;;1.59;81.71;100551.33;1704616;83;21182;-46
2021/03/20 03:23:29;;;;;;;18.25;11.10;;;;;;;1.60;81.81;100556.56;1695719;82;21509;-44
2021/03/20 03:26:23;;;;;;;13.85;9.65;;;;;;;1.61;81.91;100556.97;1675499;84;21157;-44
2021/03/20 03:28:55;;;;;;;15.38;12.35;;;;;;;1.60;82.04;100557.88;1703257;82;21146;-43
2021/03/20 03:31:50;;;;;;;16.62;11.15;;;;;;;1.59;82.58;100557.90;1669197;84;21186;-41
2021/03/20 03:34:22;;;;;;;14.28;11.18;;;;;;;1.50;83.01;100555.88;1691404;82;21126;-48
2021/03/20 03:37:19;;;;;;;13.32;9.95;;;;;;;1.43;83.19;100560.84;1694942;83;21166;-45
2021/03/20 03:39:53;;;;;;;13.22;10.78;;;;;;;1.37;85.14;100560.11;1695652;82;21206;-46
2021/03/20 03:42:21;;;;;;;13.30;11.10;;;;;;;1.30;85.10;100556.72;1689651;82;21120;-46
2021/03/20 03:44:51;;;;;;;13.55;10.93;;;;;;;1.23;85.58;100560.36;1697236;82;21142;-46
2021/03/20 03:47:25;;;;;;;13.38;10.55;;;;;;;1.12;85.91;100556.63;1699133;82;21614;-47
2021/03/20 03:49:56;;;;;;;13.78;8.95;;;;;;;1.04;86.59;100551.97;1702548;82;21145;-46
2021/03/20 03:52:24;;;;;;;13.22;9.88;;;;;;;0.98;86.96;100556.89;1701078;82;21165;-46
2021/03/20 03:54:51;;;;;;;12.33;8.63;;;;;;;0.93;87.43;100560.47;1696914;82;21566;-48
2021/03/20 03:57:47;;;;;;;12.60;7.97;;;;;;;0.94;88.03;100559.14;1692942;82;21162;-41
2021/03/20 04:00:46;;;;;;;11.10;8.15;;;;;;;1.00;87.86;100559.47;1700533;82;21155;-47
2021/03/20 04:03:38;;;;;;;8.95;7.15;;;;;;;1.04;87.60;100554.59;1698622;82;21189;-45
2021/03/20 04:06:17;;;;;;;9.15;7.20;;;;;;;1.05;87.74;100558.48;1704466;82;21110;-44
2021/03/20 04:09:19;;;;;;;9.63;6.85;;;;;;;1.05;87.28;100554.55;1690537;84;21137;-48
2021/03/20 04:11:55;;;;;;;10.13;7.28;;;;;;;1.07;87.14;100551.91;1636898;85;21572;-43
2021/03/20 04:14:43;;;;;;;8.55;6.30;;;;;;;1.06;86.47;100554.12;1675201;83;21180;-41
2021/03/20 04:17:34;;;;;;;9.55;6.95;;;;;;;1.04;85.96;100560.70;1671850;83;21291;-45
2021/03/20 04:20:37;;;;;;;9.38;6.95;;;;;;;1.00;85.71;100564.73;1675309;83;21779;-49
2021/03/20 04:23:14;;;;;;;8.65;6.78;;;;;;;0.97;85.17;100572.21;1668480;84;21206;-44
2021/03/20 04:25:56;;;;;;;8.78;5.95;;;;;;;0.97;85.14;100567.41;1761478;79;22984;-44
2021/03/20 04:28:32;;;;;;;9.35;6.95;;;;;;;0.91;84.97;100572.33;1730757;80;21557;-46
2021/03/20 04:31:06;;;;;;;10.85;7.10;;;;;;;0.91;84.86;100569.70;1735678;80;21648;-45
2021/03/20 04:33:44;;;;;;;12.58;6.90;;;;;;;0.93;84.90;100576.23;1737117;80;21138;-43
2021/03/20 04:36:26;;;;;;;9.65;6.70;;;;;;;0.94;84.68;100576.67;1723352;82;21141;-44
2021/03/20 04:38:54;;;;;;;12.20;7.15;;;;;;;0.96;84.60;100581.00;1734791;80;21136;-43
2021/03/20 04:41:22;;;;;;;11.57;7.87;;;;;;;0.97;84.00;100580.55;1712262;82;21550;-43
2021/03/20 04:43:50;;;;;;;9.60;6.55;;;;;;;0.98;84.02;100584.47;1674705;83;21605;-43
2021/03/20 04:46:23;;;;;;;8.75;6.47;;;;;;;1.00;83.78;100587.05;1691926;82;21152;-43
2021/03/20 04:49:22;;;;;;;13.05;7.30;;;;;;;0.98;83.63;100584.47;1694387;84;21303;-49
2021/03/20 04:51:53;;;;;;;11.65;7.00;;;;;;;1.01;83.47;100588.80;1688554;82;21580;-43
2021/03/20 04:54:21;;;;;;;11.45;8.18;;;;;;;1.00;83.46;100594.48;1731562;81;21141;-48
2021/03/20 04:57:11;;;;;;;11.10;7.28;;;;;;;1.01;83.33;100587.03;1735229;80;21848;-45
2021/03/20 05:00:06;;;;;;;10.65;6.83;;;;;;;1.02;83.30;100592.70;1725574;80;21138;-47
2021/03/20 05:02:57;;;;;;;9.70;7.25;;;;;;;1.05;83.34;100590.47;1712219;82;21157;-47
2021/03/20 05:05:34;;;;;;;10.28;6.70;;;;;;;1.10;83.23;100595.19;1715614;82;21698;-40
2021/03/20 05:08:12;;;;;;;10.30;7.72;;;;;;;1.17;83.22;100587.62;1745904;79;23036;-51
2021/03/20 05:10:59;;;;;;;9.03;6.90;;;;;;;1.17;83.11;100595.50;1713238;82;21286;-42
2021/03/20 05:13:44;;;;;;;12.82;7.25;;;;;;;1.22;83.08;100599.36;1703810;82;21280;-45
2021/03/20 05:16:23;;;;;;;10.32;6.55;;;;;;;1.24;83.00;100602.38;1704345;82;21263;-45
2021/03/20 05:18:52;;;;;;;8.63;6.85;;;;;;;1.28;82.77;100596.61;1710880;82;21138;-45
2021/03/20 05:21:30;;;;;;;7.47;6.33;;;;;;;1.32;82.64;100598.30;1713849;82;21148;-45
2021/03/20 05:23:59;;;;;;;9.60;5.78;;;;;;;1.36;82.60;100600.41;1709672;82;21134;-45
2021/03/20 05:26:29;;;;;;;9.25;6.33;;;;;;;1.38;82.40;100603.42;1711329;82;21157;-44
2021/03/20 05:28:58;;;;;;;8.13;6.70;;;;;;;1.42;82.33;100608.20;1709537;83;21554;-45
2021/03/20 05:31:27;;;;;;;9.05;7.03;;;;;;;1.41;81.85;100612.59;1713888;82;21189;-45
2021/03/20 05:33:55;;;;;;;9.15;6.67;;;;;;;1.38;81.82;100617.88;1710305;82;22285;-44
2021/03/20 05:36:23;;;;;;;9.35;6.17;;;;;;;1.35;81.70;100615.77;1718265;82;21677;-48
2021/03/20 05:38:51;;;;;;;8.60;6.33;;;;;;;1.29;81.71;100609.73;1714986;82;21145;-44
2021/03/20 05:41:36;;;;;;;7.70;5.60;;;;;;;1.27;81.77;100616.77;1714366;82;21141;-42
2021/03/20 05:44:41;;;;;;;9.15;5.90;;;;;;;1.30;81.70;100619.34;1715807;82;21142;-42
2021/03/20 05:47:43;;;;;;;8.63;6.25;;;;;;;1.33;81.46;100621.50;1704714;82;21700;-45
2021/03/20 05:50:45;;;;;;;8.65;7.42;;;;;;;1.32;81.37;100619.78;1711293;83;21153;-45
2021/03/20 05:53:55;;;;;;;8.03;6.40;;;;;;;1.33;81.31;100621.50;1709130;82;22097;-45
2021/03/20 05:56:31;;;;;;;8.10;6.92;;;;;;;1.35;81.30;100622.34;1718421;82;21153;-45
2021/03/20 05:59:04;;;;;;;7.78;6.62;;;;;;;1.40;81.24;100629.23;1710569;82;21169;-45
2021/03/20 06:01:48;;;;;;;10.48;8.13;;;;;;;1.42;81.20;100624.83;1710170;82;21775;-43
2021/03/20 06:04:39;;;;;;;9.33;7.28;;;;;;;1.45;81.21;100631.33;1708195;83;21194;-44
2021/03/20 06:07:27;;;;;;;11.40;8.03;;;;;;;1.48;81.15;100633.03;1713803;82;21144;-45
2021/03/20 06:10:24;;;;;;;10.08;7.75;;;;;;;1.48;80.95;100634.35;1712902;82;21734;-46
2021/03/20 06:13:17;;;;;;;11.80;7.97;;;;;;;1.49;80.92;100633.48;1719770;82;21134;-47
2021/03/20 06:16:24;;;;;;;9.90;8.80;;;;;;;1.55;81.05;100637.74;1785255;78;28306;-42
2021/03/20 06:19:37;;;;;;;13.38;9.23;;;;;;;1.53;80.98;100641.70;1780408;79;21102;-45
2021/03/20 06:22:25;;;;;;;15.83;8.80;;;;;;;1.63;80.72;100640.63;1772242;80;21145;-45
2021/03/20 06:25:37;;;;;;;9.83;8.38;;;;;;;1.69;80.33;100645.79;1776473;79;21541;-44
2021/03/20 06:28:05;;;;;;;12.03;8.50;;;;;;;1.71;80.10;100646.63;1706260;82;21169;-42
2021/03/20 06:30:41;;;;;;;11.83;8.55;;;;;;;1.70;79.81;100650.14;1708636;82;21129;-47
2021/03/20 06:33:25;;;;;;;10.68;8.30;;;;;;;1.72;79.42;100651.44;1798635;78;23177;-44
2021/03/20 06:36:09;;;;;;;13.55;7.87;;;;;;;1.67;79.13;100653.29;1777842;79;21134;-44
2021/03/20 06:38:46;;;;;;;12.00;8.13;;;;;;;1.69;79.28;100656.77;1755922;80;21150;-44
2021/03/20 06:41:20;;;;;;;12.68;8.93;;;;;;;1.75;79.45;100657.09;1781510;79;21125;-43
2021/03/20 06:43:57;;;;;;;13.10;8.60;;;;;;;1.80;79.20;100652.60;1772000;79;21129;-44
2021/03/20 06:46:30;;;;;;;13.20;8.40;;;;;;;1.82;78.50;100661.33;1774713;79;21133;-44
2021/03/20 06:49:04;;;;;;;12.47;8.48;;;;;;;1.83;78.72;100659.97;1776530;80;21154;-44
2021/03/20 06:51:32;;;;;;;10.85;8.25;;;;;;;1.83;78.02;100661.73;1770908;80;21104;-46
2021/03/20 06:54:02;;;;;;;11.78;8.55;;;;;;;1.87;77.95;100664.73;1694473;81;21530;-52
2021/03/20 06:56:35;;;;;;;12.23;9.48;;;;;;;1.90;76.74;100665.98;1718084;81;21158;-45
2021/03/20 06:59:12;;;;;;;17.20;9.53;;;;;;;1.92;76.14;100666.83;1717803;81;21577;-45
2021/03/20 07:01:48;;;;;;;11.03;7.40;;;;;;;1.90;76.20;100669.93;1725015;82;21151;-45
2021/03/20 07:04:36;;;;;;;10.63;8.28;;;;;;;1.92;76.50;100669.45;1723148;82;21137;-45
2021/03/20 07:07:30;;;;;;;11.08;8.60;;;;;;;1.96;76.12;100675.05;1724017;82;21220;-45
2021/03/20 07:09:58;;;;;;;12.45;8.95;;;;;;;1.99;76.45;100678.97;1720793;81;21573;-45
2021/03/20 07:12:26;;;;;;;12.73;8.70;;;;;;;2.03;76.43;100681.07;1719017;81;21125;-46
2021/03/20 07:14:58;;;;;;;13.88;8.50;;;;;;;2.05;76.40;100681.91;1723022;82;21130;-46
2021/03/20 07:17:36;;;;;;;13.32;8.25;;;;;;;2.10;76.65;100684.00;1721277;82;21152;-46
2021/03/20 07:20:18;;;;;;;9.80;7.55;;;;;;;2.15;75.47;100687.41;1719096;81;21303;-47
2021/03/20 07:22:50;;;;;;;13.50;8.80;;;;;;;2.21;76.02;100688.58;1738377;80;21163;-47
2021/03/20 07:25:34;;;;;;;12.80;9.15;;;;;;;2.27;75.60;100692.42;1724801;82;21154;-44
2021/03/20 07:28:19;;;;;;;12.13;7.25;;;;;;;2.33;75.69;100696.68;1721929;81;21587;-48
2021/03/20 07:31:07;;;;;;;11.30;7.42;;;;;;;2.38;74.79;100698.30;1710111;82;21158;-47
2021/03/20 07:33:53;;;;;;;10.63;7.30;;;;;;;2.46;73.22;100707.81;1705465;82;21121;-50
2021/03/20 07:36:36;;;;;;;11.83;7.53;;;;;;;2.51;73.85;100704.17;1731011;80;21178;-43
2021/03/20 07:39:15;;;;;;;10.30;6.95;;;;;;;2.56;72.54;100709.34;1710138;82;21182;-41
2021/03/20 07:41:48;;;;;;;14.35;7.58;;;;;;;2.54;71.07;100708.50;1735786;80;21141;-48
2021/03/20 07:44:18;;;;;;;12.18;7.37;;;;;;;2.47;69.55;100709.53;1730661;80;21122;-48
2021/03/20 07:46:45;;;;;;;9.15;6.22;;;;;;;2.43;69.82;100704.80;1731199;80;21583;-51
2021/03/20 07:49:34;;;;;;;8.33;6.33;;;;;;;2.45;70.54;100710.05;1708599;82;21162;-50
2021/03/20 07:52:06;;;;;;;8.98;5.90;;;;;;;2.45;69.09;100711.36;1734321;80;21164;-43
2021/03/20 07:54:35;;;;;;;9.53;6.33;;;;;;;2.47;69.96;100711.73;1706834;82;21173;-45
2021/03/20 07:57:21;;;;;;;11.97;5.80;;;;;;;2.51;70.73;100717.80;1735020;80;21378;-46
2021/03/20 07:59:52;;;;;;;12.53;6.70;;;;;;;2.56;68.79;100718.10;1739268;80;22034;-43
2021/03/20 08:02:35;;;;;;;11.38;6.65;;;;;;;2.60;68.83;100719.78;1735290;80;21152;-44
2021/03/20 08:05:26;;;;;;;10.68;6.17;;;;;;;2.63;67.70;100721.94;1732196;80;21172;-47
2021/03/20 08:07:55;;;;;;;8.48;6.08;;;;;;;2.65;67.64;100719.69;1712332;82;21162;-47
2021/03/20 08:10:29;;;;;;;7.92;5.92;;;;;;;2.70;66.87;100720.45;1705751;82;21126;-39
2021/03/20 08:13:17;;;;;;;9.08;5.67;;;;;;;2.76;68.35;100718.98;1730316;80;21282;-42
2021/03/20 08:15:47;;;;;;;8.58;5.83;;;;;;;2.83;67.92;100720.17;1732084;80;21149;-48
2021/03/20 08:18:21;;;;;;;;;;;;;;;2.90;66.53;100716.47;1734987;80;21612;-48
2021/03/20 08:21:05;;;;;;;11.53;6.12;;;;;;;2.95;66.66;100719.45;1710405;82;20183;-49
2021/03/20 08:23:57;;;;;;;9.33;6.12;;;;;;;2.97;65.80;100720.70;1678995;83;21191;-50
2021/03/20 08:26:49;;;;;;;11.20;5.50;;;;;;;2.98;66.71;100720.68;1733869;80;21142;-41
2021/03/20 08:29:54;;;;;;;11.08;6.42;;;;;;;3.03;66.25;100721.89;1731475;80;21110;-42
2021/03/20 08:32:47;;;;;;;9.43;5.87;;;;;;;3.08;64.07;100720.02;1695896;82;21566;-47
2021/03/20 08:35:53;;;;;;;11.97;6.22;;;;;;;3.13;65.94;100718.59;1639660;85;21676;-47
2021/03/20 08:38:41;;;;;;;9.60;5.03;;;;;;;3.18;65.11;100720.21;1651659;85;21283;-42
2021/03/20 08:41:43;;;;;;;14.03;6.33;;;;;;;3.33;65.92;100726.02;1800207;78;23134;-41
2021/03/20 08:45:04;;;;;;;7.55;5.10;;;;;;;3.37;65.73;100717.11;1776448;79;21129;-42
2021/03/20 08:47:49;;;;;;;11.78;4.55;;;;;;;3.43;64.44;100720.47;1775280;79;21652;-42
2021/03/20 08:50:22;;;;;;;7.03;4.55;;;;;;;3.45;64.44;100726.58;1695568;82;21478;-42
2021/03/20 08:53:04;;;;;;;9.05;5.15;;;;;;;3.51;63.35;100724.23;1701825;82;21153;-46
2021/03/20 08:56:00;;;;;;;9.15;5.60;;;;;;;3.61;64.12;100723.09;1701470;82;21137;-44
2021/03/20 08:58:53;;;;;;;7.67;4.97;;;;;;;3.68;61.79;100723.34;1702576;82;21254;-48
2021/03/20 09:01:51;;;;;;;7.12;4.62;;;;;;;3.71;61.59;100718.90;1699827;82;21589;-45
2021/03/20 09:04:29;;;;;;;9.65;5.05;;;;;;;3.67;61.81;100730.83;1701521;82;21349;-44
2021/03/20 09:07:27;;;;;;;7.50;5.00;;;;;;;3.68;62.95;100723.80;1789742;78;23066;-44
2021/03/20 09:09:59;;;;;;;8.00;4.37;;;;;;;3.63;61.80;100726.55;1784359;78;21105;-43
2021/03/20 09:12:38;;;;;;;7.35;4.28;;;;;;;3.59;60.59;100734.12;1783428;78;21168;-41
2021/03/20 09:15:27;;;;;;;8.03;4.85;;;;;;;3.54;60.21;100728.56;1763731;80;21527;-44
2021/03/20 09:18:27;;;;;;;7.92;4.55;;;;;;;3.48;59.26;100736.19;1751477;80;21133;-51
2021/03/20 09:21:19;;;;;;;11.73;4.90;;;;;;;3.52;61.14;100727.27;1798415;78;22248;-48
2021/03/20 09:23:53;;;;;;;6.53;3.92;;;;;;;3.46;59.67;100741.94;1707623;82;21625;-43
2021/03/20 09:26:48;;;;;;;6.75;3.58;;;;;;;3.47;59.36;100735.75;1711269;82;21698;-40
2021/03/20 09:29:48;;;;;;;5.22;3.22;;;;;;;3.55;58.54;100740.83;1789417;78;23448;-41
2021/03/20 09:32:18;;;;;;;6.40;2.87;;;;;;;3.56;58.11;100742.13;1724651;81;21215;-42
2021/03/20 09:34:49;;;;;;;4.60;2.63;;;;;;;3.60;57.36;100738.52;1704591;82;21228;-46
2021/03/20 09:37:23;;;;;;;3.58;2.35;;;;;;;3.59;50.65;100730.17;1731588;81;21166;-44
2021/03/20 09:39:53;;;;;;;7.40;3.25;;;;;;;3.58;52.58;100739.00;1733306;81;21167;-43
2021/03/20 09:42:32;;;;;;;4.33;2.35;;;;;;;3.56;52.34;100736.84;1733167;81;21607;-48
2021/03/20 09:45:08;;;;;;;4.12;2.30;;;;;;;3.57;51.26;100741.66;1739024;81;21617;-44
2021/03/20 09:47:47;;;;;;;2.67;2.30;;;;;;;3.57;48.72;100748.25;1715347;81;21589;-44
2021/03/20 09:50:23;;;;;;;5.60;2.05;;;;;;;3.60;51.15;100745.53;1740166;81;21164;-49
2021/03/20 09:53:15;;;;;;;3.08;2.15;;;;;;;3.67;52.88;100744.47;1728266;81;21152;-48
2021/03/20 09:55:47;;;;;;;3.35;1.95;;;;;;;3.77;50.52;100735.87;1733914;81;21151;-49
2021/03/20 09:58:26;;;;;;;3.90;2.12;;;;;;;3.85;49.14;100743.13;1747802;81;21165;-48
2021/03/20 10:01:01;;;;;;;4.72;2.22;;;;;;;3.82;47.11;100735.30;1730786;81;21158;-45
2021/03/20 10:03:50;;;;;;;3.00;2.20;;;;;;;3.80;47.94;100737.10;1737241;81;21609;-43
2021/03/20 10:06:30;;;;;;;3.10;1.90;;;;;;;3.85;48.58;100735.20;1736125;81;21974;-45
2021/03/20 10:09:05;;;;;;;3.55;1.90;;;;;;;3.90;45.99;100740.77;1714610;83;21796;-47
2021/03/20 10:11:43;;;;;;;3.52;1.72;;;;;;;3.99;48.80;100738.81;1679815;83;21172;-43
2021/03/20 10:14:33;;;;;;;2.72;1.77;;;;;;;4.10;49.94;100734.95;1660756;84;21189;-41
2021/03/20 10:17:28;;;;;;;4.10;1.87;;;;;;;4.25;49.18;100738.94;1691348;83;21196;-43
2021/03/20 10:20:16;;;;;;;4.03;1.57;;;;;;;4.34;46.97;100737.36;1699147;82;21188;-47
2021/03/20 10:23:01;;;;;;;2.40;1.47;;;;;;;4.40;46.36;100742.91;1673842;84;21769;-46
2021/03/20 10:25:30;;;;;;;1.60;1.22;;;;;;;4.48;46.13;100740.91;1687061;83;21200;-48
2021/03/20 10:28:02;;;;;;;1.95;1.30;;;;;;;4.51;42.65;100734.24;1696692;83;21172;-48
2021/03/20 10:30:33;;;;;;;2.75;1.55;;;;;;;4.51;44.01;100734.67;1686159;83;21150;-49
2021/03/20 10:33:15;;;;;;;1.90;1.45;;;;;;;4.57;44.81;100733.66;1709890;83;21664;-43
2021/03/20 10:35:45;;;;;;;1.77;1.27;;;;;;;4.64;45.84;100733.88;1701912;82;21132;-47
2021/03/20 10:38:28;;;;;;;1.90;1.40;;;;;;;4.74;43.38;100734.02;1697467;82;21169;-47
2021/03/20 10:41:00;;;;;;;3.47;1.40;;;;;;;4.78;42.80;100733.84;1693921;83;21727;-46
2021/03/20 10:43:27;;;;;;;2.35;1.50;;;;;;;4.80;42.99;100732.48;1709956;83;21214;-47
2021/03/20 10:45:56;;;;;;;4.08;2.17;;;;;;;4.84;43.90;100724.89;1687972;83;21740;-49
2021/03/20 10:48:25;;;;;;;3.50;1.98;;;;;;;4.91;44.05;100724.22;1670412;84;21915;-45
2021/03/20 10:51:01;;;;;;;2.42;1.52;;;;;;;4.96;44.80;100727.16;1682116;84;21153;-41
2021/03/20 10:53:34;;;;;;;2.65;1.80;;;;;;;5.01;45.03;100719.05;1675877;84;21157;-45
2021/03/20 10:56:02;;;;;;;3.37;1.95;;;;;;;5.12;44.39;100717.41;1699364;83;21169;-49
2021/03/20 10:58:40;;;;;;;2.30;1.60;;;;;;;5.18;43.38;100719.84;1682677;84;21193;-42
2021/03/20 11:01:10;;;;;;;5.15;3.27;;;;;;;5.20;43.54;100714.91;1696393;83;21136;-43
2021/03/20 11:03:46;;;;;;;3.40;1.80;;;;;;;5.27;43.62;100717.38;1645120;85;21756;-47
2021/03/20 11:06:18;;;;;;;2.35;1.55;;;;;;;5.25;44.04;100721.37;1707340;82;21188;-43
2021/03/20 11:09:09;;;;;;;2.80;1.72;;;;;;;5.19;42.90;100717.59;1682927;84;22078;-42
2021/03/20 11:11:40;;;;;;;2.58;1.55;;;;;;;5.16;42.95;100724.31;1680353;84;21178;-47
2021/03/20 11:14:17;;;;;;;2.35;1.65;;;;;;;5.13;42.43;100717.34;1682438;84;21180;-43
2021/03/20 11:17:03;;;;;;;3.42;1.80;;;;;;;5.13;44.23;100716.02;1682353;84;21596;-43
2021/03/20 11:19:40;;;;;;;4.00;1.80;;;;;;;5.19;42.49;100710.55;1676575;84;21382;-48
2021/03/20 11:22:34;;;;;;;3.70;1.80;;;;;;;5.26;43.81;100713.84;1661818;84;21950;-42
2021/03/20 11:25:32;;;;;;;3.12;1.82;;;;;;;5.35;41.65;100705.62;1680459;84;21204;-43
2021/03/20 11:28:14;;;;;;;3.50;2.35;;;;;;;5.42;41.96;100701.86;1678102;84;21153;-45
2021/03/20 11:30:49;;;;;;;;;;;;;;;5.46;42.42;100701.28;1650029;84;21280;-46
2021/03/20 11:33:20;;;;;;;3.55;2.52;;;;;;;5.45;43.31;100694.27;1680538;84;20272;-46
2021/03/20 11:35:51;;;;;;;5.47;2.80;;;;;;;5.49;42.47;100692.38;1686249;84;21170;-46
2021/03/20 11:38:20;;;;;;;3.75;2.20;;;;;;;5.54;42.96;100698.37;1692788;84;21181;-45
2021/03/20 11:40:57;;;;;;;3.70;2.45;;;;;;;5.60;42.86;100689.78;1666925;84;21177;-45
2021/03/20 11:43:45;;;;;;;5.22;3.17;;;;;;;5.64;41.96;100687.44;1687274;84;21197;-45
2021/03/20 11:46:26;;;;;;;3.58;2.72;;;;;;;5.62;42.84;100694.56;1687130;84;21189;-45
2021/03/20 11:49:00;;;;;;;4.30;2.65;;;;;;;5.63;42.94;100695.42;1687644;83;21185;-47
2021/03/20 11:51:40;;;;;;;4.28;2.95;;;;;;;5.58;42.80;100696.89;1679990;84;21175;-46
2021/03/20 11:54:32;;;;;;;4.85;2.95;;;;;;;5.57;43.86;100696.97;1682965;84;21176;-45
2021/03/20 11:57:06;;;;;;;4.15;2.42;;;;;;;5.55;43.85;100693.50;1682779;84;21319;-45
2021/03/20 11:59:43;;;;;;;5.37;2.62;;;;;;;5.54;44.51;100686.47;1701111;82;21149;-48
2021/03/20 12:02:28;;;;;;;7.47;3.47;;;;;;;5.51;44.35;100691.41;1683720;84;21160;-50
2021/03/20 12:05:16;;;;;;;4.30;2.85;;;;;;;5.46;44.22;100684.55;1659824;85;21181;-41
2021/03/20 12:07:45;;;;;;;3.87;3.00;;;;;;;5.41;44.93;100688.67;1676490;84;21255;-42
2021/03/20 12:10:24;;;;;;;5.03;2.65;;;;;;;5.39;44.77;100687.42;1679007;84;21188;-47
2021/03/20 12:12:55;;;;;;;4.83;2.83;;;;;;;5.39;44.95;100687.42;1684778;83;21169;-44
2021/03/20 12:15:35;;;;;;;5.20;3.02;;;;;;;5.41;44.59;100688.67;1674324;84;21192;-40
2021/03/20 12:18:13;;;;;;;5.10;2.67;;;;;;;5.47;44.91;100687.59;1763923;79;23246;-46
2021/03/20 12:20:42;;;;;;;6.30;3.80;;;;;;;5.45;44.65;100682.38;1732224;80;21629;-43
2021/03/20 12:23:23;;;;;;;5.12;3.30;;;;;;;5.41;44.71;100685.56;1738686;80;21292;-47
2021/03/20 12:25:54;;;;;;;5.90;3.30;;;;;;;5.40;46.64;100685.63;1731425;82;21149;-46
2021/03/20 12:28:37;;;;;;;4.72;3.12;;;;;;;5.30;49.88;100689.50;1735664;80;21132;-43